Time,TemperatureF,DewpointF,PressureIn,WindDirection,WindDirectionDegrees,WindSpeedMPH,WindSpeedGustMPH,Humidity,HourlyPrecipIn,Conditions,Clouds,dailyrainin,SoftwareType,DateUTC
2013-07-01 00:00:00,54.5,51.3,30.02,SSE,167,0.0,0.0,89,0.00,,---,0.00,VWS V14.01,2013-07-01 05:00:00,
2013-07-01 00:05:00,54.4,51.5,30.02,SSE,167,0.0,0.0,90,0.00,,---,0.00,VWS V14.01,2013-07-01 05:05:00,
2013-07-01 00:10:00,54.3,51.4,30.02,SSE,167,0.0,0.0,90,0.00,,---,0.00,VWS V14.01,2013-07-01 05:10:00,
2013-07-01 00:15:00,54.1,51.2,30.02,SSE,167,0.0,0.0,90,0.00,,---,0.00,VWS V14.01,2013-07-01 05:15:00,
2013-07-01 00:20:00,53.9,51.0,30.02,SSE,167,0.0,0.0,90,0.00,,---,0.00,VWS V14.01,2013-07-01 05:20:00,
2013-07-01 00:21:00,53.9,51.0,30.02,SSE,167,0.0,0.0,90,0.00,,---,0.00,VWS V14.01,2013-07-01 05:21:00,
2013-07-01 00:25:00,53.7,50.8,30.02,SSE,167,0.0,0.0,90,0.00,,---,0.00,VWS V14.01,2013-07-01 05:25:00,
2013-07-01 00:26:00,53.7,50.8,30.02,SSE,167,0.0,0.0,90,0.00,,---,0.00,VWS V14.01,2013-07-01 05:26:00,
2013-07-01 00:30:00,53.5,50.7,30.02,SSE,167,0.0,0.0,90,0.00,,---,0.00,VWS V14.01,2013-07-01 05:30:00,
2013-07-01 00:31:00,53.5,50.6,30.02,SSE,167,0.0,0.0,90,0.00,,---,0.00,VWS V14.01,2013-07-01 05:31:00,
2013-07-01 00:35:00,53.3,50.5,30.02,SSE,167,0.0,0.0,90,0.00,,---,0.00,VWS V14.01,2013-07-01 05:35:00,
2013-07-01 00:36:00,53.2,50.3,30.02,SSE,167,0.0,0.0,90,0.00,,---,0.00,VWS V14.01,2013-07-01 05:36:00,
2013-07-01 00:40:00,53.1,50.5,30.02,SSE,167,0.0,0.0,91,0.00,,---,0.00,VWS V14.01,2013-07-01 05:40:00,
2013-07-01 00:41:00,53.1,50.5,30.02,SSE,167,0.0,0.0,91,0.00,,---,0.00,VWS V14.01,2013-07-01 05:41:00,
2013-07-01 00:45:00,53.0,50.7,30.02,SSE,167,0.0,0.0,92,0.00,,---,0.00,VWS V14.01,2013-07-01 05:45:00,
2013-07-01 00:46:00,53.0,50.7,30.02,SSE,167,0.0,0.0,92,0.00,,---,0.00,VWS V14.01,2013-07-01 05:46:00,
2013-07-01 00:50:00,52.9,50.6,30.02,SSE,167,0.0,0.0,92,0.00,,---,0.00,VWS V14.01,2013-07-01 05:50:00,
2013-07-01 00:51:00,52.9,50.6,30.02,SSE,167,0.0,0.0,92,0.00,,---,0.00,VWS V14.01,2013-07-01 05:51:00,
2013-07-01 00:55:00,52.8,50.8,30.02,SSE,167,0.0,0.0,93,0.00,,---,0.00,VWS V14.01,2013-07-01 05:55:00,
2013-07-01 00:56:00,52.8,50.8,30.02,SSE,167,0.0,0.0,93,0.00,,---,0.00,VWS V14.01,2013-07-01 05:56:00,
2013-07-01 01:00:00,52.8,50.8,30.02,SSE,167,0.0,0.0,93,0.00,,---,0.00,VWS V14.01,2013-07-01 06:00:00,
2013-07-01 01:01:00,52.7,50.7,30.02,SSE,167,0.0,0.0,93,0.00,,---,0.00,VWS V14.01,2013-07-01 06:01:00,
2013-07-01 01:05:00,52.6,50.6,30.02,SSE,167,0.0,0.0,93,0.00,,---,0.00,VWS V14.01,2013-07-01 06:05:00,
2013-07-01 01:06:00,52.6,50.6,30.02,SSE,167,0.0,0.0,93,0.00,,---,0.00,VWS V14.01,2013-07-01 06:06:00,
2013-07-01 01:10:00,52.4,50.2,30.02,SSE,167,0.0,0.0,92,0.00,,---,0.00,VWS V14.01,2013-07-01 06:10:00,
2013-07-01 01:11:00,52.4,50.2,30.02,SSE,167,0.0,0.0,92,0.00,,---,0.00,VWS V14.01,2013-07-01 06:11:00,
2013-07-01 01:15:00,52.2,50.2,30.03,SSE,167,0.0,0.0,93,0.00,,---,0.00,VWS V14.01,2013-07-01 06:15:00,
2013-07-01 01:16:00,52.2,50.2,30.03,SSE,167,0.0,0.0,93,0.00,,---,0.00,VWS V14.01,2013-07-01 06:16:00,
2013-07-01 01:20:00,52.1,50.1,30.03,SSE,167,0.0,0.0,93,0.00,,---,0.00,VWS V14.01,2013-07-01 06:20:00,
2013-07-01 01:21:00,52.1,50.1,30.03,SSE,167,0.0,0.0,93,0.00,,---,0.00,VWS V14.01,2013-07-01 06:21:00,
2013-07-01 01:25:00,52.0,50.0,30.03,SSE,167,0.0,0.0,93,0.00,,---,0.00,VWS V14.01,2013-07-01 06:25:00,
2013-07-01 01:26:00,52.0,50.0,30.03,SSE,167,0.0,0.0,93,0.00,,---,0.00,VWS V14.01,2013-07-01 06:26:00,
2013-07-01 01:30:00,52.0,50.3,30.03,SSE,167,0.0,0.0,94,0.00,,---,0.00,VWS V14.01,2013-07-01 06:30:00,
2013-07-01 01:31:00,52.0,50.3,30.03,SSE,167,0.0,0.0,94,0.00,,---,0.00,VWS V14.01,2013-07-01 06:31:00,
2013-07-01 01:35:00,52.0,50.3,30.03,SSE,167,0.0,0.0,94,0.00,,---,0.00,VWS V14.01,2013-07-01 06:35:00,
2013-07-01 01:37:00,52.0,50.3,30.03,SSE,167,0.0,0.0,94,0.00,,---,0.00,VWS V14.01,2013-07-01 06:37:00,
2013-07-01 01:40:00,51.9,50.2,30.03,SSE,167,0.0,0.0,94,0.00,,---,0.00,VWS V14.01,2013-07-01 06:40:00,
2013-07-01 01:42:00,51.9,50.2,30.03,SSE,167,0.0,0.0,94,0.00,,---,0.00,VWS V14.01,2013-07-01 06:42:00,
2013-07-01 01:45:00,51.8,50.1,30.03,SSE,167,0.0,0.0,94,0.00,,---,0.00,VWS V14.01,2013-07-01 06:45:00,
2013-07-01 01:47:00,51.8,50.1,30.03,SSE,167,0.0,0.0,94,0.00,,---,0.00,VWS V14.01,2013-07-01 06:47:00,
2013-07-01 01:50:00,51.6,49.9,30.03,SSE,167,0.0,0.0,94,0.00,,---,0.00,VWS V14.01,2013-07-01 06:50:00,
2013-07-01 01:52:00,51.5,49.8,30.03,SSE,167,0.0,0.0,94,0.00,,---,0.00,VWS V14.01,2013-07-01 06:52:00,
2013-07-01 01:55:00,51.3,49.6,30.03,SSE,167,0.0,0.0,94,0.00,,---,0.00,VWS V14.01,2013-07-01 06:55:00,
2013-07-01 01:57:00,51.2,49.5,30.03,SSE,167,0.0,0.0,94,0.00,,---,0.00,VWS V14.01,2013-07-01 06:57:00,
2013-07-01 02:00:00,51.1,49.4,30.03,SSE,167,0.0,0.0,94,0.00,,---,0.00,VWS V14.01,2013-07-01 07:00:00,
2013-07-01 02:02:00,51.0,49.3,30.03,SSE,167,0.0,0.0,94,0.00,,---,0.00,VWS V14.01,2013-07-01 07:02:00,
2013-07-01 02:05:00,50.9,49.2,30.03,SSE,167,0.0,0.0,94,0.00,,---,0.00,VWS V14.01,2013-07-01 07:05:00,
2013-07-01 02:07:00,50.9,49.2,30.03,SSE,167,0.0,0.0,94,0.00,,---,0.00,VWS V14.01,2013-07-01 07:07:00,
2013-07-01 02:10:00,50.9,49.5,30.03,SSE,167,0.0,0.0,95,0.00,,---,0.00,VWS V14.01,2013-07-01 07:10:00,
2013-07-01 02:12:00,50.9,49.5,30.03,SSE,167,0.0,0.0,95,0.00,,---,0.00,VWS V14.01,2013-07-01 07:12:00,
2013-07-01 02:15:00,51.0,49.6,30.03,SSE,167,0.0,0.0,95,0.00,,---,0.00,VWS V14.01,2013-07-01 07:15:00,
2013-07-01 02:17:00,51.0,49.6,30.03,SSE,167,0.0,0.0,95,0.00,,---,0.00,VWS V14.01,2013-07-01 07:17:00,
2013-07-01 02:20:00,51.1,49.7,30.03,SSE,167,0.0,0.0,95,0.00,,---,0.00,VWS V14.01,2013-07-01 07:20:00,
2013-07-01 02:22:00,51.1,49.7,30.03,SSE,167,0.0,0.0,95,0.00,,---,0.00,VWS V14.01,2013-07-01 07:22:00,
2013-07-01 02:25:00,51.0,49.6,30.03,SSE,167,0.0,0.0,95,0.00,,---,0.00,VWS V14.01,2013-07-01 07:25:00,
2013-07-01 02:27:00,51.0,49.6,30.03,SSE,167,0.0,0.0,95,0.00,,---,0.00,VWS V14.01,2013-07-01 07:27:00,
2013-07-01 02:30:00,50.8,49.4,30.03,SSE,167,0.0,0.0,95,0.00,,---,0.00,VWS V14.01,2013-07-01 07:30:00,
2013-07-01 02:32:00,50.8,49.4,30.03,SSE,167,0.0,0.0,95,0.00,,---,0.00,VWS V14.01,2013-07-01 07:32:00,
2013-07-01 02:35:00,50.7,49.3,30.03,SSE,167,0.0,0.0,95,0.00,,---,0.00,VWS V14.01,2013-07-01 07:35:00,
2013-07-01 02:37:00,50.6,49.2,30.03,SSE,167,0.0,0.0,95,0.00,,---,0.00,VWS V14.01,2013-07-01 07:37:00,
2013-07-01 02:40:00,50.5,49.1,30.03,SSE,167,0.0,0.0,95,0.00,,---,0.00,VWS V14.01,2013-07-01 07:40:00,
2013-07-01 02:42:00,50.4,49.0,30.03,SSE,167,0.0,0.0,95,0.00,,---,0.00,VWS V14.01,2013-07-01 07:42:00,
2013-07-01 02:45:00,50.4,49.0,30.03,SSE,167,0.0,0.0,95,0.00,,---,0.00,VWS V14.01,2013-07-01 07:45:00,
2013-07-01 02:47:00,50.5,49.1,30.03,SSE,167,0.0,0.0,95,0.00,,---,0.00,VWS V14.01,2013-07-01 07:47:00,
2013-07-01 02:50:00,50.4,49.0,30.03,SSE,167,0.0,0.0,95,0.00,,---,0.00,VWS V14.01,2013-07-01 07:50:00,
2013-07-01 02:52:00,50.3,48.9,30.03,SSE,167,0.0,0.0,95,0.00,,---,0.00,VWS V14.01,2013-07-01 07:52:00,
2013-07-01 02:55:00,50.2,48.8,30.03,SSE,167,0.0,0.0,95,0.00,,---,0.00,VWS V14.01,2013-07-01 07:55:00,
2013-07-01 02:58:00,50.2,48.8,30.03,SSE,167,0.0,0.0,95,0.00,,---,0.00,VWS V14.01,2013-07-01 07:58:00,
2013-07-01 03:00:00,50.2,48.8,30.03,SSE,167,0.0,0.0,95,0.00,,---,0.00,VWS V14.01,2013-07-01 08:00:00,
2013-07-01 03:03:00,50.1,48.7,30.03,SSE,167,0.0,0.0,95,0.00,,---,0.00,VWS V14.01,2013-07-01 08:03:00,
2013-07-01 03:05:00,50.0,48.6,30.03,SSE,167,0.0,0.0,95,0.00,,---,0.00,VWS V14.01,2013-07-01 08:05:00,
2013-07-01 03:08:00,50.0,48.6,30.03,SSE,167,0.0,0.0,95,0.00,,---,0.00,VWS V14.01,2013-07-01 08:08:00,
2013-07-01 03:10:00,50.0,48.9,30.03,SSE,167,0.0,0.0,96,0.00,,---,0.00,VWS V14.01,2013-07-01 08:10:00,
2013-07-01 03:13:00,49.9,48.5,30.03,SSE,167,0.0,0.0,95,0.00,,---,0.00,VWS V14.01,2013-07-01 08:13:00,
2013-07-01 03:15:00,49.9,48.5,30.04,SSE,167,0.0,0.0,95,0.00,,---,0.00,VWS V14.01,2013-07-01 08:15:00,
2013-07-01 03:18:00,49.8,48.4,30.04,SSE,167,0.0,0.0,95,0.00,,---,0.00,VWS V14.01,2013-07-01 08:18:00,
2013-07-01 03:20:00,49.9,48.8,30.04,SSE,167,0.0,0.0,96,0.00,,---,0.00,VWS V14.01,2013-07-01 08:20:00,
2013-07-01 03:23:00,49.9,48.8,30.04,SSE,167,0.0,0.0,96,0.00,,---,0.00,VWS V14.01,2013-07-01 08:23:00,
2013-07-01 03:25:00,49.9,48.8,30.04,SSE,167,0.0,0.0,96,0.00,,---,0.00,VWS V14.01,2013-07-01 08:25:00,
2013-07-01 03:28:00,49.8,48.7,30.04,SSE,167,0.0,0.0,96,0.00,,---,0.00,VWS V14.01,2013-07-01 08:28:00,
2013-07-01 03:30:00,49.7,48.6,30.04,SSE,167,0.0,0.0,96,0.00,,---,0.00,VWS V14.01,2013-07-01 08:30:00,
2013-07-01 03:33:00,49.6,48.5,30.04,SSE,167,0.0,0.0,96,0.00,,---,0.00,VWS V14.01,2013-07-01 08:33:00,
2013-07-01 03:35:00,49.6,48.5,30.04,SSE,167,0.0,0.0,96,0.00,,---,0.00,VWS V14.01,2013-07-01 08:35:00,
2013-07-01 03:38:00,49.7,48.6,30.04,SSE,167,0.0,0.0,96,0.00,,---,0.00,VWS V14.01,2013-07-01 08:38:00,
2013-07-01 03:40:00,49.8,48.7,30.04,SSE,167,0.0,0.0,96,0.00,,---,0.00,VWS V14.01,2013-07-01 08:40:00,
2013-07-01 03:43:00,49.7,48.6,30.04,SSE,167,0.0,0.0,96,0.00,,---,0.00,VWS V14.01,2013-07-01 08:43:00,
2013-07-01 03:45:00,49.6,48.5,30.04,SSE,167,0.0,0.0,96,0.00,,---,0.00,VWS V14.01,2013-07-01 08:45:00,
2013-07-01 03:48:00,49.5,48.4,30.04,SSE,167,0.0,0.0,96,0.00,,---,0.00,VWS V14.01,2013-07-01 08:48:00,
2013-07-01 03:50:00,49.4,48.3,30.04,SSE,167,0.0,0.0,96,0.00,,---,0.00,VWS V14.01,2013-07-01 08:50:00,
2013-07-01 03:53:00,49.3,48.2,30.04,SSE,167,0.0,0.0,96,0.00,,---,0.00,VWS V14.01,2013-07-01 08:53:00,
2013-07-01 03:55:00,49.3,48.2,30.04,SSE,167,0.0,0.0,96,0.00,,---,0.00,VWS V14.01,2013-07-01 08:55:00,
2013-07-01 03:58:00,49.2,48.1,30.04,SSE,167,0.0,0.0,96,0.00,,---,0.00,VWS V14.01,2013-07-01 08:58:00,
2013-07-01 04:00:00,49.3,48.2,30.04,SSE,167,0.0,0.0,96,0.00,,---,0.00,VWS V14.01,2013-07-01 09:00:00,
2013-07-01 04:03:00,49.2,48.1,30.04,SSE,167,0.0,0.0,96,0.00,,---,0.00,VWS V14.01,2013-07-01 09:03:00,
2013-07-01 04:05:00,49.2,48.1,30.04,SSE,167,0.0,0.0,96,0.00,,---,0.00,VWS V14.01,2013-07-01 09:05:00,
2013-07-01 04:08:00,49.2,48.1,30.04,SSE,167,0.0,0.0,96,0.00,,---,0.00,VWS V14.01,2013-07-01 09:08:00,
2013-07-01 04:10:00,49.2,48.1,30.04,SSE,167,0.0,0.0,96,0.00,,---,0.00,VWS V14.01,2013-07-01 09:10:00,
2013-07-01 04:13:00,49.1,48.0,30.04,SSE,167,0.0,0.0,96,0.00,,---,0.00,VWS V14.01,2013-07-01 09:13:00,
2013-07-01 04:15:00,49.1,48.0,30.04,SSE,166,0.0,0.0,96,0.00,,---,0.00,VWS V14.01,2013-07-01 09:15:00,
2013-07-01 04:18:00,49.1,48.0,30.04,SSE,167,0.0,0.0,96,0.00,,---,0.00,VWS V14.01,2013-07-01 09:18:00,
2013-07-01 04:20:00,49.0,47.9,30.04,SSE,167,0.0,0.0,96,0.00,,---,0.00,VWS V14.01,2013-07-01 09:20:00,
2013-07-01 04:24:00,48.9,47.8,30.04,SSE,167,0.0,0.0,96,0.00,,---,0.00,VWS V14.01,2013-07-01 09:24:00,
2013-07-01 04:25:00,48.9,47.8,30.04,SSE,167,0.0,0.0,96,0.00,,---,0.00,VWS V14.01,2013-07-01 09:25:00,
2013-07-01 04:29:00,48.8,47.7,30.04,SSE,167,0.0,0.0,96,0.00,,---,0.00,VWS V14.01,2013-07-01 09:29:00,
2013-07-01 04:30:00,48.8,47.7,30.04,SSE,167,0.0,0.0,96,0.00,,---,0.00,VWS V14.01,2013-07-01 09:30:00,
2013-07-01 04:34:00,48.8,47.7,30.04,SSE,167,0.0,0.0,96,0.00,,---,0.00,VWS V14.01,2013-07-01 09:34:00,
2013-07-01 04:35:00,48.7,47.6,30.04,SSE,167,0.0,0.0,96,0.00,,---,0.00,VWS V14.01,2013-07-01 09:35:00,
2013-07-01 04:39:00,48.7,47.6,30.04,SSE,167,0.0,0.0,96,0.00,,---,0.00,VWS V14.01,2013-07-01 09:39:00,
2013-07-01 04:40:00,48.8,47.7,30.04,SSE,167,0.0,0.0,96,0.00,,---,0.00,VWS V14.01,2013-07-01 09:40:00,
2013-07-01 04:44:00,48.9,47.8,30.04,SSE,167,0.0,0.0,96,0.00,,---,0.00,VWS V14.01,2013-07-01 09:44:00,
2013-07-01 04:45:00,48.8,47.7,30.04,SSE,167,0.0,0.0,96,0.00,,---,0.00,VWS V14.01,2013-07-01 09:45:00,
2013-07-01 04:49:00,48.7,47.6,30.04,SSE,167,0.0,0.0,96,0.00,,---,0.00,VWS V14.01,2013-07-01 09:49:00,
2013-07-01 04:50:00,48.6,47.5,30.04,SSE,167,0.0,0.0,96,0.00,,---,0.00,VWS V14.01,2013-07-01 09:50:00,
2013-07-01 04:54:00,48.5,47.4,30.04,SSE,167,0.0,0.0,96,0.00,,---,0.00,VWS V14.01,2013-07-01 09:54:00,
2013-07-01 04:55:00,48.5,47.4,30.04,SSE,167,0.0,0.0,96,0.00,,---,0.00,VWS V14.01,2013-07-01 09:55:00,
2013-07-01 04:59:00,48.4,47.3,30.04,SSE,167,0.0,0.0,96,0.00,,---,0.00,VWS V14.01,2013-07-01 09:59:00,
2013-07-01 05:00:00,48.3,47.2,30.05,SSE,167,0.0,0.0,96,0.00,,---,0.00,VWS V14.01,2013-07-01 10:00:00,
2013-07-01 05:04:00,48.2,47.1,30.05,SSE,167,0.0,0.0,96,0.00,,---,0.00,VWS V14.01,2013-07-01 10:04:00,
2013-07-01 05:05:00,48.2,47.1,30.05,SSE,167,0.0,0.0,96,0.00,,---,0.00,VWS V14.01,2013-07-01 10:05:00,
2013-07-01 05:09:00,48.4,47.3,30.05,SSE,167,0.0,0.0,96,0.00,,---,0.00,VWS V14.01,2013-07-01 10:09:00,
2013-07-01 05:10:00,48.4,47.6,30.05,SSE,167,0.0,0.0,97,0.00,,---,0.00,VWS V14.01,2013-07-01 10:10:00,
2013-07-01 05:14:00,48.4,47.6,30.05,SSE,167,0.0,0.0,97,0.00,,---,0.00,VWS V14.01,2013-07-01 10:14:00,
2013-07-01 05:15:00,48.3,47.2,30.06,SSE,167,0.0,0.0,96,0.00,,---,0.00,VWS V14.01,2013-07-01 10:15:00,
2013-07-01 05:19:00,48.2,47.1,30.06,SSE,167,0.0,0.0,96,0.00,,---,0.00,VWS V14.01,2013-07-01 10:19:00,
2013-07-01 05:20:00,48.2,47.1,30.06,SSE,167,0.0,0.0,96,0.00,,---,0.00,VWS V14.01,2013-07-01 10:20:00,
2013-07-01 05:24:00,48.2,47.4,30.06,SSE,167,0.0,0.0,97,0.00,,---,0.00,VWS V14.01,2013-07-01 10:24:00,
2013-07-01 05:25:00,48.2,47.4,30.06,SSE,167,0.0,0.0,97,0.00,,---,0.00,VWS V14.01,2013-07-01 10:25:00,
2013-07-01 05:29:00,48.1,47.3,30.06,SSE,167,0.0,0.0,97,0.00,,---,0.00,VWS V14.01,2013-07-01 10:29:00,
2013-07-01 05:30:00,48.1,47.0,30.06,SSE,167,0.0,0.0,96,0.00,,---,0.00,VWS V14.01,2013-07-01 10:30:00,
2013-07-01 05:34:00,48.0,46.9,30.06,SSE,167,0.0,0.0,96,0.00,,---,0.00,VWS V14.01,2013-07-01 10:34:00,
2013-07-01 05:35:00,48.0,46.9,30.06,SSE,167,0.0,0.0,96,0.00,,---,0.00,VWS V14.01,2013-07-01 10:35:00,
2013-07-01 05:39:00,47.9,46.8,30.06,SSE,167,0.0,0.0,96,0.00,,---,0.00,VWS V14.01,2013-07-01 10:39:00,
2013-07-01 05:40:00,48.0,47.2,30.06,SSE,167,0.0,0.0,97,0.00,,---,0.00,VWS V14.01,2013-07-01 10:40:00,
2013-07-01 05:44:00,48.0,47.2,30.06,SSE,167,0.0,0.0,97,0.00,,---,0.00,VWS V14.01,2013-07-01 10:44:00,
2013-07-01 05:45:00,47.9,47.1,30.06,SSE,167,0.0,0.0,97,0.00,,---,0.00,VWS V14.01,2013-07-01 10:45:00,
2013-07-01 05:49:00,48.0,47.2,30.06,SSE,167,0.0,0.0,97,0.00,,---,0.00,VWS V14.01,2013-07-01 10:49:00,
2013-07-01 05:50:00,48.0,47.2,30.06,SSE,167,0.0,0.0,97,0.00,,---,0.00,VWS V14.01,2013-07-01 10:50:00,
2013-07-01 05:55:00,48.3,47.5,30.06,SSE,167,0.0,0.0,97,0.00,,---,0.00,VWS V14.01,2013-07-01 10:55:00,
2013-07-01 06:00:00,48.5,47.7,30.07,SSE,167,0.0,0.0,97,0.00,,---,0.00,VWS V14.01,2013-07-01 11:00:00,
2013-07-01 06:05:00,48.6,47.8,30.07,SSE,167,0.0,0.0,97,0.00,,---,0.00,VWS V14.01,2013-07-01 11:05:00,
2013-07-01 06:10:00,48.7,47.9,30.07,SSE,167,0.0,0.0,97,0.00,,---,0.00,VWS V14.01,2013-07-01 11:10:00,
2013-07-01 06:15:00,48.7,47.9,30.07,SSE,167,0.0,0.0,97,0.00,,---,0.00,VWS V14.01,2013-07-01 11:15:00,
2013-07-01 06:20:00,48.7,47.9,30.07,SSE,167,0.0,0.0,97,0.00,,---,0.00,VWS V14.01,2013-07-01 11:20:00,
2013-07-01 06:25:00,48.9,48.1,30.07,SSE,167,0.0,0.0,97,0.00,,---,0.00,VWS V14.01,2013-07-01 11:25:00,
2013-07-01 06:30:00,49.3,48.5,30.07,SSE,167,0.0,0.0,97,0.00,,---,0.00,VWS V14.01,2013-07-01 11:30:00,
2013-07-01 06:35:00,49.5,48.7,30.07,SSE,167,0.0,0.0,97,0.00,,---,0.00,VWS V14.01,2013-07-01 11:35:00,
2013-07-01 06:40:00,49.7,48.9,30.07,SSE,167,0.0,0.0,97,0.00,,---,0.00,VWS V14.01,2013-07-01 11:40:00,
2013-07-01 06:45:00,49.9,49.1,30.07,SSE,167,0.0,0.0,97,0.00,,---,0.00,VWS V14.01,2013-07-01 11:45:00,
2013-07-01 06:50:00,50.3,49.5,30.07,SSE,167,0.0,0.0,97,0.00,,---,0.00,VWS V14.01,2013-07-01 11:50:00,
2013-07-01 06:55:00,51.0,50.2,30.07,SSE,167,0.0,0.0,97,0.00,,---,0.00,VWS V14.01,2013-07-01 11:55:00,
2013-07-01 07:00:00,52.4,51.8,30.07,SSE,167,0.0,0.0,98,0.00,,---,0.00,VWS V14.01,2013-07-01 12:00:00,
2013-07-01 07:05:00,53.3,52.8,30.07,SSE,167,0.0,0.0,98,0.00,,---,0.00,VWS V14.01,2013-07-01 12:05:00,
2013-07-01 07:10:00,54.1,53.3,30.07,SSE,167,0.0,0.0,97,0.00,,---,0.00,VWS V14.01,2013-07-01 12:10:00,
2013-07-01 07:15:00,54.9,53.8,30.08,SSE,167,0.0,0.0,96,0.00,,---,0.00,VWS V14.01,2013-07-01 12:15:00,
2013-07-01 07:20:00,55.5,54.1,30.08,SSE,167,0.0,0.0,95,0.00,,---,0.00,VWS V14.01,2013-07-01 12:20:00,
2013-07-01 07:25:00,56.3,54.6,30.08,SSE,167,0.0,0.0,94,0.00,,---,0.00,VWS V14.01,2013-07-01 12:25:00,
2013-07-01 07:26:00,56.3,54.6,30.08,SSE,167,0.0,0.0,94,0.00,,---,0.00,VWS V14.01,2013-07-01 12:26:00,
2013-07-01 07:30:00,57.3,55.3,30.08,SSE,167,0.0,0.0,93,0.00,,---,0.00,VWS V14.01,2013-07-01 12:30:00,
2013-07-01 07:31:00,57.3,55.3,30.08,SSE,167,0.0,0.0,93,0.00,,---,0.00,VWS V14.01,2013-07-01 12:31:00,
2013-07-01 07:35:00,58.4,55.5,30.08,SSE,167,0.0,0.0,90,0.00,,---,0.00,VWS V14.01,2013-07-01 12:35:00,
2013-07-01 07:36:00,58.4,55.5,30.08,SSE,167,0.0,0.0,90,0.00,,---,0.00,VWS V14.01,2013-07-01 12:36:00,
2013-07-01 07:40:00,59.1,55.6,30.08,SSE,167,0.0,0.0,88,0.00,,---,0.00,VWS V14.01,2013-07-01 12:40:00,
2013-07-01 07:41:00,59.1,55.5,30.08,SSE,167,0.0,0.0,88,0.00,,---,0.00,VWS V14.01,2013-07-01 12:41:00,
2013-07-01 07:45:00,59.4,55.5,30.08,SSE,167,0.0,0.0,87,0.00,,---,0.00,VWS V14.01,2013-07-01 12:45:00,
2013-07-01 07:46:00,59.4,55.5,30.08,SSE,167,0.0,0.0,87,0.00,,---,0.00,VWS V14.01,2013-07-01 12:46:00,
2013-07-01 07:50:00,59.8,55.3,30.08,East,99,0.0,0.0,85,0.00,,---,0.00,VWS V14.01,2013-07-01 12:50:00,
2013-07-01 07:51:00,59.8,55.3,30.08,East,99,0.0,0.0,85,0.00,,---,0.00,VWS V14.01,2013-07-01 12:51:00,
2013-07-01 07:55:00,60.3,55.8,30.08,East,100,0.0,0.0,85,0.00,,---,0.00,VWS V14.01,2013-07-01 12:55:00,
2013-07-01 07:56:00,60.3,55.8,30.08,East,100,0.0,0.0,85,0.00,,---,0.00,VWS V14.01,2013-07-01 12:56:00,
2013-07-01 08:00:00,60.9,55.4,30.08,East,94,0.0,1.0,82,0.00,,---,0.00,VWS V14.01,2013-07-01 13:00:00,
2013-07-01 08:01:00,60.9,55.4,30.08,East,94,0.0,1.0,82,0.00,,---,0.00,VWS V14.01,2013-07-01 13:01:00,
2013-07-01 08:05:00,61.3,55.4,30.08,ESE,104,0.0,0.0,81,0.00,,---,0.00,VWS V14.01,2013-07-01 13:05:00,
2013-07-01 08:06:00,61.3,55.4,30.08,ESE,104,0.0,0.0,81,0.00,,---,0.00,VWS V14.01,2013-07-01 13:06:00,
2013-07-01 08:10:00,61.7,55.5,30.08,North,0,0.0,0.0,80,0.00,,---,0.00,VWS V14.01,2013-07-01 13:10:00,
2013-07-01 08:15:00,62.3,56.4,30.08,North,0,0.0,0.0,81,0.00,,---,0.00,VWS V14.01,2013-07-01 13:15:00,
2013-07-01 08:20:00,62.8,55.8,30.08,North,0,0.0,0.0,78,0.00,,---,0.00,VWS V14.01,2013-07-01 13:20:00,
2013-07-01 08:25:00,63.3,56.0,30.08,North,0,0.0,0.0,77,0.00,,---,0.00,VWS V14.01,2013-07-01 13:25:00,
2013-07-01 08:30:00,64.1,54.5,30.08,North,0,0.0,0.0,71,0.00,,---,0.00,VWS V14.01,2013-07-01 13:30:00,
2013-07-01 08:39:00,64.1,54.5,30.08,North,0,0.0,0.0,71,0.00,,---,0.00,VWS V14.01,2013-07-01 13:39:00,
2013-07-01 08:40:00,65.2,54.4,30.08,East,89,0.0,0.0,68,0.00,,---,0.00,VWS V14.01,2013-07-01 13:40:00,
2013-07-01 08:44:00,65.6,54.0,30.08,East,88,0.0,1.0,66,0.00,,---,0.00,VWS V14.01,2013-07-01 13:44:00,
2013-07-01 08:45:00,65.7,54.0,30.08,East,89,0.0,1.0,66,0.00,,---,0.00,VWS V14.01,2013-07-01 13:45:00,
2013-07-01 08:59:00,66.3,54.2,30.08,SE,135,0.0,3.0,65,0.00,,---,0.00,VWS V14.01,2013-07-01 13:59:00,
2013-07-01 09:05:00,67.8,55.6,30.08,East,99,0.0,1.0,65,0.00,,---,0.00,VWS V14.01,2013-07-01 14:05:00,
2013-07-01 09:10:00,68.3,54.8,30.08,East,94,0.0,3.0,62,0.00,,---,0.00,VWS V14.01,2013-07-01 14:10:00,
2013-07-01 09:15:00,68.8,54.4,30.08,ENE,70,1.0,4.0,60,0.00,,---,0.00,VWS V14.01,2013-07-01 14:15:00,
2013-07-01 09:20:00,69.4,55.4,30.08,East,94,0.0,3.0,61,0.00,,---,0.00,VWS V14.01,2013-07-01 14:20:00,
2013-07-01 09:25:00,70.3,56.2,30.08,ESE,111,0.0,1.0,61,0.00,,---,0.00,VWS V14.01,2013-07-01 14:25:00,
2013-07-01 09:30:00,71.0,55.5,30.08,East,86,1.0,2.0,58,0.00,,---,0.00,VWS V14.01,2013-07-01 14:30:00,
2013-07-01 09:35:00,71.4,55.9,30.08,SSW,206,0.0,1.0,58,0.00,,---,0.00,VWS V14.01,2013-07-01 14:35:00,
2013-07-01 09:40:00,71.8,57.2,30.08,SSW,207,0.0,0.0,60,0.00,,---,0.00,VWS V14.01,2013-07-01 14:40:00,
2013-07-01 09:45:00,72.1,57.0,30.07,West,277,1.0,2.0,59,0.00,,---,0.00,VWS V14.01,2013-07-01 14:45:00,
2013-07-01 09:51:00,72.2,55.7,30.07,NE,36,2.0,3.0,56,0.00,,---,0.00,VWS V14.01,2013-07-01 14:51:00,
2013-07-01 09:56:00,72.4,55.3,30.07,East,79,0.0,5.0,55,0.00,,---,0.00,VWS V14.01,2013-07-01 14:56:00,
2013-07-01 10:01:00,72.8,54.7,30.07,WNW,297,0.0,3.0,53,0.00,,---,0.00,VWS V14.01,2013-07-01 15:01:00,
2013-07-01 10:06:00,73.2,55.1,30.07,ENE,74,0.0,3.0,53,0.00,,---,0.00,VWS V14.01,2013-07-01 15:06:00,
2013-07-01 10:11:00,73.5,56.4,30.07,SW,230,0.0,2.0,55,0.00,,---,0.00,VWS V14.01,2013-07-01 15:11:00,
2013-07-01 10:16:00,73.7,56.0,30.07,East,96,0.0,2.0,54,0.00,,---,0.00,VWS V14.01,2013-07-01 15:16:00,
2013-07-01 10:21:00,73.9,56.7,30.07,SE,130,0.0,0.0,55,0.00,,---,0.00,VWS V14.01,2013-07-01 15:21:00,
2013-07-01 10:26:00,74.2,56.0,30.07,WSW,249,1.0,3.0,53,0.00,,---,0.00,VWS V14.01,2013-07-01 15:26:00,
2013-07-01 10:31:00,74.3,55.6,30.07,East,86,0.0,5.0,52,0.00,,---,0.00,VWS V14.01,2013-07-01 15:31:00,
2013-07-01 10:36:00,74.6,56.4,30.07,SW,235,3.0,3.0,53,0.00,,---,0.00,VWS V14.01,2013-07-01 15:36:00,
2013-07-01 10:41:00,74.8,55.5,30.07,SE,134,1.0,3.0,51,0.00,,---,0.00,VWS V14.01,2013-07-01 15:41:00,
2013-07-01 10:46:00,75.1,54.7,30.07,East,96,0.0,5.0,49,0.00,,---,0.00,VWS V14.01,2013-07-01 15:46:00,
2013-07-01 10:51:00,75.6,55.1,30.07,East,100,0.0,3.0,49,0.00,,---,0.00,VWS V14.01,2013-07-01 15:51:00,
2013-07-01 10:56:00,76.1,55.6,30.07,ENE,69,1.0,3.0,49,0.00,,---,0.00,VWS V14.01,2013-07-01 15:56:00,
2013-07-01 11:01:00,76.5,56.5,30.07,NNE,13,0.0,3.0,50,0.00,,---,0.00,VWS V14.01,2013-07-01 16:01:00,
2013-07-01 11:06:00,76.8,54.5,30.07,NE,53,2.0,6.0,46,0.00,,---,0.00,VWS V14.01,2013-07-01 16:06:00,
2013-07-01 11:11:00,76.8,53.9,30.07,ESE,105,3.0,5.0,45,0.00,,---,0.00,VWS V14.01,2013-07-01 16:11:00,
2013-07-01 11:16:00,76.6,55.5,30.06,ESE,111,4.0,7.0,48,0.00,,---,0.00,VWS V14.01,2013-07-01 16:16:00,
2013-07-01 11:21:00,76.7,55.0,30.06,ESE,103,1.0,7.0,47,0.00,,---,0.00,VWS V14.01,2013-07-01 16:21:00,
2013-07-01 11:26:00,77.6,56.4,30.06,West,280,1.0,2.0,48,0.00,,---,0.00,VWS V14.01,2013-07-01 16:26:00,
2013-07-01 11:31:00,78.3,55.2,30.06,South,190,2.0,3.0,45,0.00,,---,0.00,VWS V14.01,2013-07-01 16:31:00,
2013-07-01 11:36:00,78.1,55.7,30.06,ESE,111,2.0,8.0,46,0.00,,---,0.00,VWS V14.01,2013-07-01 16:36:00,
2013-07-01 11:41:00,78.7,56.8,30.06,NNW,336,0.0,1.0,47,0.00,,---,0.00,VWS V14.01,2013-07-01 16:41:00,
2013-07-01 11:46:00,78.8,56.3,30.07,SW,227,1.0,4.0,46,0.00,,---,0.00,VWS V14.01,2013-07-01 16:46:00,
2013-07-01 11:51:00,78.4,55.3,30.07,East,101,2.0,2.0,45,0.00,,---,0.00,VWS V14.01,2013-07-01 16:51:00,
2013-07-01 11:56:00,78.1,55.0,30.07,NE,49,2.0,2.0,45,0.00,,---,0.00,VWS V14.01,2013-07-01 16:56:00,
2013-07-01 12:02:00,78.4,55.9,30.06,WNW,293,1.0,3.0,46,0.00,,---,0.00,VWS V14.01,2013-07-01 17:02:00,
2013-07-01 12:07:00,79.0,57.1,30.06,NE,52,3.0,3.0,47,0.00,,---,0.00,VWS V14.01,2013-07-01 17:07:00,
2013-07-01 12:12:00,79.2,54.8,30.06,NE,40,2.0,2.0,43,0.00,,---,0.00,VWS V14.01,2013-07-01 17:12:00,
2013-07-01 12:17:00,79.6,55.8,30.06,WNW,291,0.0,2.0,44,0.00,,---,0.00,VWS V14.01,2013-07-01 17:17:00,
2013-07-01 12:22:00,79.9,54.8,30.06,West,267,6.0,6.0,42,0.00,,---,0.00,VWS V14.01,2013-07-01 17:22:00,
2013-07-01 12:27:00,80.3,55.1,30.06,ENE,61,2.0,2.0,42,0.00,,---,0.00,VWS V14.01,2013-07-01 17:27:00,
2013-07-01 12:32:00,80.1,55.6,30.06,NW,308,1.0,2.0,43,0.00,,---,0.00,VWS V14.01,2013-07-01 17:32:00,
2013-07-01 12:38:00,80.0,52.1,30.06,East,101,1.0,3.0,38,0.00,,---,0.00,VWS V14.01,2013-07-01 17:38:00,
2013-07-01 12:43:00,79.4,52.3,30.06,West,264,1.0,4.0,39,0.00,,---,0.00,VWS V14.01,2013-07-01 17:43:00,
2013-07-01 12:48:00,79.9,53.5,30.06,North,360,1.0,1.0,40,0.00,,---,0.00,VWS V14.01,2013-07-01 17:48:00,
2013-07-01 12:53:00,79.6,53.2,30.06,West,280,0.0,3.0,40,0.00,,---,0.00,VWS V14.01,2013-07-01 17:53:00,
2013-07-01 12:58:00,79.3,54.2,30.06,West,260,2.0,3.0,42,0.00,,---,0.00,VWS V14.01,2013-07-01 17:58:00,
2013-07-01 13:03:00,79.4,55.0,30.06,WSW,255,3.0,3.0,43,0.00,,---,0.00,VWS V14.01,2013-07-01 18:03:00,
2013-07-01 13:08:00,79.5,53.8,30.06,East,98,0.0,3.0,41,0.00,,---,0.00,VWS V14.01,2013-07-01 18:08:00,
2013-07-01 13:13:00,79.4,53.0,30.06,ESE,105,1.0,2.0,40,0.00,,---,0.00,VWS V14.01,2013-07-01 18:13:00,
2013-07-01 13:18:00,80.3,54.5,30.06,East,80,2.0,5.0,41,0.00,,---,0.00,VWS V14.01,2013-07-01 18:18:00,
2013-07-01 13:23:00,79.8,52.0,30.06,NE,51,1.0,6.0,38,0.00,,---,0.00,VWS V14.01,2013-07-01 18:23:00,
2013-07-01 13:28:00,80.7,56.2,30.06,WNW,284,3.0,4.0,43,0.00,,---,0.00,VWS V14.01,2013-07-01 18:28:00,
2013-07-01 13:34:00,81.1,53.8,30.05,WSW,246,1.0,3.0,39,0.00,,---,0.00,VWS V14.01,2013-07-01 18:34:00,
2013-07-01 13:39:00,80.9,53.7,30.05,SW,232,4.0,4.0,39,0.00,,---,0.00,VWS V14.01,2013-07-01 18:39:00,
2013-07-01 13:44:00,81.0,53.0,30.05,WSW,240,1.0,3.0,38,0.00,,---,0.00,VWS V14.01,2013-07-01 18:44:00,
2013-07-01 13:49:00,81.9,51.6,30.05,SE,134,0.0,1.0,35,0.00,,---,0.00,VWS V14.01,2013-07-01 18:49:00,
2013-07-01 13:54:00,82.6,54.5,30.05,NNE,16,1.0,2.0,38,0.00,,---,0.00,VWS V14.01,2013-07-01 18:54:00,
2013-07-01 13:59:00,82.6,54.5,30.05,ENE,71,1.0,2.0,38,0.00,,---,0.00,VWS V14.01,2013-07-01 18:59:00,
2013-07-01 14:04:00,81.8,53.0,30.05,NW,317,1.0,4.0,37,0.00,,---,0.00,VWS V14.01,2013-07-01 19:04:00,
2013-07-01 14:09:00,82.0,53.9,30.05,SW,233,1.0,3.0,38,0.00,,---,0.00,VWS V14.01,2013-07-01 19:09:00,
2013-07-01 14:14:00,82.4,55.7,30.05,ENE,69,3.0,3.0,40,0.00,,---,0.00,VWS V14.01,2013-07-01 19:14:00,
2013-07-01 14:19:00,82.5,55.1,30.05,East,90,1.0,7.0,39,0.00,,---,0.00,VWS V14.01,2013-07-01 19:19:00,
2013-07-01 14:24:00,82.1,55.4,30.05,NE,44,0.0,2.0,40,0.00,,---,0.00,VWS V14.01,2013-07-01 19:24:00,
2013-07-01 14:29:00,81.5,54.9,30.05,West,261,0.0,2.0,40,0.00,,---,0.00,VWS V14.01,2013-07-01 19:29:00,
2013-07-01 14:34:00,80.9,54.3,30.05,West,273,1.0,2.0,40,0.00,,---,0.00,VWS V14.01,2013-07-01 19:34:00,
2013-07-01 14:40:00,81.4,52.7,30.05,WSW,253,0.0,3.0,37,0.00,,---,0.00,VWS V14.01,2013-07-01 19:40:00,
2013-07-01 14:45:00,81.8,54.5,30.04,ENE,74,3.0,5.0,39,0.00,,---,0.00,VWS V14.01,2013-07-01 19:45:00,
2013-07-01 14:50:00,82.0,53.9,30.04,East,82,2.0,5.0,38,0.00,,---,0.00,VWS V14.01,2013-07-01 19:50:00,
2013-07-01 14:55:00,82.3,54.9,30.04,West,265,0.0,4.0,39,0.00,,---,0.00,VWS V14.01,2013-07-01 19:55:00,
2013-07-01 15:00:00,82.1,55.4,30.04,ENE,59,0.0,4.0,40,0.00,,---,0.00,VWS V14.01,2013-07-01 20:00:00,
2013-07-01 15:05:00,82.0,53.9,30.04,East,101,3.0,5.0,38,0.00,,---,0.00,VWS V14.01,2013-07-01 20:05:00,
2013-07-01 15:10:00,82.0,55.3,30.04,SW,236,1.0,4.0,40,0.00,,---,0.00,VWS V14.01,2013-07-01 20:10:00,
2013-07-01 15:15:00,81.6,55.0,30.04,WNW,298,1.0,6.0,40,0.00,,---,0.00,VWS V14.01,2013-07-01 20:15:00,
2013-07-01 15:20:00,82.0,54.6,30.04,SW,214,3.0,4.0,39,0.00,,---,0.00,VWS V14.01,2013-07-01 20:20:00,
2013-07-01 15:25:00,81.5,55.5,30.04,ENE,74,2.0,5.0,41,0.00,,---,0.00,VWS V14.01,2013-07-01 20:25:00,
2013-07-01 15:30:00,80.8,54.2,30.04,West,259,1.0,5.0,40,0.00,,---,0.00,VWS V14.01,2013-07-01 20:30:00,
2013-07-01 15:35:00,81.0,53.0,30.04,ENE,57,1.0,4.0,38,0.00,,---,0.00,VWS V14.01,2013-07-01 20:35:00,
2013-07-01 15:40:00,81.0,53.0,30.04,SW,229,2.0,4.0,38,0.00,,---,0.00,VWS V14.01,2013-07-01 20:40:00,
2013-07-01 15:45:00,81.6,54.3,30.04,NNE,13,2.0,5.0,39,0.00,,---,0.00,VWS V14.01,2013-07-01 20:45:00,
2013-07-01 15:51:00,82.1,54.0,30.04,East,83,2.0,4.0,38,0.00,,---,0.00,VWS V14.01,2013-07-01 20:51:00,
2013-07-01 15:56:00,81.6,54.3,30.04,NW,320,0.0,5.0,39,0.00,,---,0.00,VWS V14.01,2013-07-01 20:56:00,
2013-07-01 16:01:00,82.0,53.9,30.04,SW,227,0.0,3.0,38,0.00,,---,0.00,VWS V14.01,2013-07-01 21:01:00,
2013-07-01 16:06:00,82.0,53.9,30.04,East,83,1.0,2.0,38,0.00,,---,0.00,VWS V14.01,2013-07-01 21:06:00,
2013-07-01 16:11:00,81.6,55.0,30.04,WSW,254,2.0,8.0,40,0.00,,---,0.00,VWS V14.01,2013-07-01 21:11:00,
2013-07-01 16:16:00,81.4,53.4,30.04,North,11,0.0,4.0,38,0.00,,---,0.00,VWS V14.01,2013-07-01 21:16:00,
2013-07-01 16:21:00,81.6,55.6,30.04,NNE,29,1.0,2.0,41,0.00,,---,0.00,VWS V14.01,2013-07-01 21:21:00,
2013-07-01 16:26:00,81.3,55.4,30.04,WNW,303,1.0,2.0,41,0.00,,---,0.00,VWS V14.01,2013-07-01 21:26:00,
2013-07-01 16:31:00,81.7,55.0,30.04,SE,124,0.0,2.0,40,0.00,,---,0.00,VWS V14.01,2013-07-01 21:31:00,
2013-07-01 16:36:00,82.1,53.3,30.04,East,85,0.0,0.0,37,0.00,,---,0.00,VWS V14.01,2013-07-01 21:36:00,
2013-07-01 16:41:00,82.1,54.7,30.04,ENE,63,2.0,2.0,39,0.00,,---,0.00,VWS V14.01,2013-07-01 21:41:00,
2013-07-01 16:46:00,80.9,53.7,30.04,NE,41,0.0,1.0,39,0.00,,---,0.00,VWS V14.01,2013-07-01 21:46:00,
2013-07-01 16:51:00,81.4,55.5,30.04,ENE,76,1.0,5.0,41,0.00,,---,0.00,VWS V14.01,2013-07-01 21:51:00,
2013-07-01 16:56:00,81.7,55.0,30.04,West,265,1.0,4.0,40,0.00,,---,0.00,VWS V14.01,2013-07-01 21:56:00,
2013-07-01 17:01:00,81.5,54.9,30.04,ESE,103,1.0,2.0,40,0.00,,---,0.00,VWS V14.01,2013-07-01 22:01:00,
2013-07-01 17:06:00,80.8,54.2,30.04,WSW,258,2.0,2.0,40,0.00,,---,0.00,VWS V14.01,2013-07-01 22:06:00,
2013-07-01 17:11:00,80.8,54.9,30.04,NE,42,1.0,2.0,41,0.00,,---,0.00,VWS V14.01,2013-07-01 22:11:00,
2013-07-01 17:16:00,80.4,53.9,30.04,SW,221,1.0,2.0,40,0.00,,---,0.00,VWS V14.01,2013-07-01 22:16:00,
2013-07-01 17:21:00,80.2,54.4,30.04,NE,43,2.0,2.0,41,0.00,,---,0.00,VWS V14.01,2013-07-01 22:21:00,
2013-07-01 17:26:00,79.2,54.8,30.04,NW,326,0.0,2.0,43,0.00,,---,0.00,VWS V14.01,2013-07-01 22:26:00,
2013-07-01 17:31:00,78.5,54.2,30.04,North,5,0.0,2.0,43,0.00,,---,0.00,VWS V14.01,2013-07-01 22:31:00,
2013-07-01 17:36:00,77.9,54.9,30.04,NE,55,0.0,1.0,45,0.00,,---,0.00,VWS V14.01,2013-07-01 22:36:00,
2013-07-01 17:41:00,77.7,55.9,30.04,NNE,17,1.0,3.0,47,0.00,,---,0.00,VWS V14.01,2013-07-01 22:41:00,
2013-07-01 17:46:00,76.9,55.2,30.04,ENE,77,1.0,2.0,47,0.00,,---,0.00,VWS V14.01,2013-07-01 22:46:00,
2013-07-01 17:52:00,76.7,55.5,30.04,ESE,110,1.0,1.0,48,0.00,,---,0.00,VWS V14.01,2013-07-01 22:52:00,
2013-07-01 17:57:00,76.7,54.4,30.04,ENE,74,9.0,10.0,46,0.00,,---,0.00,VWS V14.01,2013-07-01 22:57:00,
2013-07-01 18:02:00,76.6,54.9,30.04,ENE,77,1.0,3.0,47,0.00,,---,0.00,VWS V14.01,2013-07-01 23:02:00,
2013-07-01 18:07:00,76.6,55.5,30.04,East,89,1.0,3.0,48,0.00,,---,0.00,VWS V14.01,2013-07-01 23:07:00,
2013-07-01 18:12:00,76.5,55.4,30.04,ENE,63,1.0,3.0,48,0.00,,---,0.00,VWS V14.01,2013-07-01 23:12:00,
2013-07-01 18:17:00,76.7,55.0,30.04,NE,39,2.0,2.0,47,0.00,,---,0.00,VWS V14.01,2013-07-01 23:17:00,
2013-07-01 18:22:00,76.7,55.0,30.04,WSW,244,0.0,1.0,47,0.00,,---,0.00,VWS V14.01,2013-07-01 23:22:00,
2013-07-01 18:27:00,77.1,55.9,30.04,ENE,76,0.0,2.0,48,0.00,,---,0.00,VWS V14.01,2013-07-01 23:27:00,
2013-07-01 18:32:00,76.8,55.1,30.04,NE,53,1.0,3.0,47,0.00,,---,0.00,VWS V14.01,2013-07-01 23:32:00,
2013-07-01 18:37:00,76.6,55.5,30.04,SSW,211,0.0,2.0,48,0.00,,---,0.00,VWS V14.01,2013-07-01 23:37:00,
2013-07-01 18:42:00,76.6,55.5,30.04,ENE,69,3.0,3.0,48,0.00,,---,0.00,VWS V14.01,2013-07-01 23:42:00,
2013-07-01 18:47:00,76.5,55.4,30.04,ENE,59,2.0,3.0,48,0.00,,---,0.00,VWS V14.01,2013-07-01 23:47:00,
2013-07-01 18:52:00,76.6,56.0,30.04,ESE,121,0.0,2.0,49,0.00,,---,0.00,VWS V14.01,2013-07-01 23:52:00,
2013-07-01 18:57:00,76.6,56.6,30.04,ENE,64,1.0,3.0,50,0.00,,---,0.00,VWS V14.01,2013-07-01 23:57:00,
2013-07-01 19:02:00,76.3,56.3,30.04,WSW,253,0.0,0.0,50,0.00,,---,0.00,VWS V14.01,2013-07-02 00:02:00,
2013-07-01 19:07:00,76.1,56.7,30.04,NE,38,0.0,1.0,51,0.00,,---,0.00,VWS V14.01,2013-07-02 00:07:00,
2013-07-01 19:13:00,76.0,56.6,30.04,NE,55,1.0,3.0,51,0.00,,---,0.00,VWS V14.01,2013-07-02 00:13:00,
2013-07-01 19:18:00,75.4,56.6,30.05,ESE,119,1.0,2.0,52,0.00,,---,0.00,VWS V14.01,2013-07-02 00:18:00,
2013-07-01 19:23:00,75.0,56.7,30.05,East,84,2.0,3.0,53,0.00,,---,0.00,VWS V14.01,2013-07-02 00:23:00,
2013-07-01 19:28:00,74.5,56.3,30.05,East,82,2.0,3.0,53,0.00,,---,0.00,VWS V14.01,2013-07-02 00:28:00,
2013-07-01 19:33:00,74.5,56.3,30.05,ENE,62,0.0,2.0,53,0.00,,---,0.00,VWS V14.01,2013-07-02 00:33:00,
2013-07-01 19:38:00,74.8,57.1,30.05,NE,48,0.0,0.0,54,0.00,,---,0.00,VWS V14.01,2013-07-02 00:38:00,
2013-07-01 19:43:00,74.8,56.5,30.05,ENE,63,1.0,3.0,53,0.00,,---,0.00,VWS V14.01,2013-07-02 00:43:00,
2013-07-01 19:48:00,74.7,56.5,30.05,NE,43,1.0,2.0,53,0.00,,---,0.00,VWS V14.01,2013-07-02 00:48:00,
2013-07-01 19:53:00,74.8,56.0,30.05,ENE,76,2.0,3.0,52,0.00,,---,0.00,VWS V14.01,2013-07-02 00:53:00,
2013-07-01 19:58:00,74.6,55.8,30.05,WNW,297,0.0,3.0,52,0.00,,---,0.00,VWS V14.01,2013-07-02 00:58:00,
2013-07-01 20:03:00,74.4,56.2,30.05,ENE,57,3.0,3.0,53,0.00,,---,0.00,VWS V14.01,2013-07-02 01:03:00,
2013-07-01 20:08:00,74.0,56.8,30.05,East,93,0.0,2.0,55,0.00,,---,0.00,VWS V14.01,2013-07-02 01:08:00,
2013-07-01 20:13:00,73.7,56.0,30.05,East,92,0.0,0.0,54,0.00,,---,0.00,VWS V14.01,2013-07-02 01:13:00,
2013-07-01 20:18:00,73.0,55.4,30.06,East,94,0.0,2.0,54,0.00,,---,0.00,VWS V14.01,2013-07-02 01:18:00,
2013-07-01 20:23:00,72.5,54.9,30.06,NE,38,1.0,2.0,54,0.00,,---,0.00,VWS V14.01,2013-07-02 01:23:00,
2013-07-01 20:28:00,72.0,55.5,30.06,SE,134,1.0,2.0,56,0.00,,---,0.00,VWS V14.01,2013-07-02 01:28:00,
2013-07-01 20:33:00,71.4,54.9,30.06,East,83,0.0,2.0,56,0.00,,---,0.00,VWS V14.01,2013-07-02 01:33:00,
2013-07-01 20:38:00,70.8,54.8,30.06,NE,42,1.0,1.0,57,0.00,,---,0.00,VWS V14.01,2013-07-02 01:38:00,
2013-07-01 20:44:00,70.3,54.4,30.06,NE,36,2.0,3.0,57,0.00,,---,0.00,VWS V14.01,2013-07-02 01:44:00,
2013-07-01 20:49:00,69.8,54.4,30.06,East,80,0.0,1.0,58,0.00,,---,0.00,VWS V14.01,2013-07-02 01:49:00,
2013-07-01 20:54:00,69.4,54.5,30.06,East,80,0.0,0.0,59,0.00,,---,0.00,VWS V14.01,2013-07-02 01:54:00,
2013-07-01 20:59:00,68.8,55.3,30.06,East,94,0.0,2.0,62,0.00,,---,0.00,VWS V14.01,2013-07-02 01:59:00,
2013-07-01 21:04:00,68.3,54.8,30.06,East,94,0.0,0.0,62,0.00,,---,0.00,VWS V14.01,2013-07-02 02:04:00,
2013-07-01 21:09:00,67.8,54.8,30.06,ENE,75,0.0,0.0,63,0.00,,---,0.00,VWS V14.01,2013-07-02 02:09:00,
2013-07-01 21:14:00,67.3,56.0,30.06,ENE,76,0.0,0.0,67,0.00,,---,0.00,VWS V14.01,2013-07-02 02:14:00,
2013-07-01 21:19:00,66.8,55.5,30.06,East,98,0.0,0.0,67,0.00,,---,0.00,VWS V14.01,2013-07-02 02:19:00,
2013-07-01 21:24:00,66.4,54.7,30.06,East,98,0.0,0.0,66,0.00,,---,0.00,VWS V14.01,2013-07-02 02:24:00,
2013-07-01 21:29:00,66.0,55.2,30.06,East,98,0.0,0.0,68,0.00,,---,0.00,VWS V14.01,2013-07-02 02:29:00,
2013-07-01 21:34:00,65.6,54.4,30.07,East,98,0.0,0.0,67,0.00,,---,0.00,VWS V14.01,2013-07-02 02:34:00,
2013-07-01 21:39:00,65.2,55.2,30.07,East,98,0.0,0.0,70,0.00,,---,0.00,VWS V14.01,2013-07-02 02:39:00,
2013-07-01 21:44:00,64.8,55.2,30.07,East,98,0.0,0.0,71,0.00,,---,0.00,VWS V14.01,2013-07-02 02:44:00,
2013-07-01 21:49:00,64.4,55.6,30.07,East,98,0.0,0.0,73,0.00,,---,0.00,VWS V14.01,2013-07-02 02:49:00,
2013-07-01 21:54:00,63.9,55.1,30.07,East,98,0.0,0.0,73,0.00,,---,0.00,VWS V14.01,2013-07-02 02:54:00,
2013-07-01 21:59:00,63.5,55.1,30.07,East,98,0.0,0.0,74,0.00,,---,0.00,VWS V14.01,2013-07-02 02:59:00,
2013-07-01 22:04:00,63.0,54.6,30.08,East,98,0.0,0.0,74,0.00,,---,0.00,VWS V14.01,2013-07-02 03:04:00,
2013-07-01 22:10:00,62.5,54.1,30.08,East,98,0.0,0.0,74,0.00,,---,0.00,VWS V14.01,2013-07-02 03:10:00,
2013-07-01 22:15:00,62.0,53.6,30.08,East,98,0.0,0.0,74,0.00,,---,0.00,VWS V14.01,2013-07-02 03:15:00,
2013-07-01 22:20:00,61.8,54.9,30.08,East,98,0.0,0.0,78,0.00,,---,0.00,VWS V14.01,2013-07-02 03:20:00,
2013-07-01 22:25:00,61.6,54.7,30.08,East,98,0.0,0.0,78,0.00,,---,0.00,VWS V14.01,2013-07-02 03:25:00,
2013-07-01 22:30:00,61.2,54.3,30.07,East,98,0.0,0.0,78,0.00,,---,0.00,VWS V14.01,2013-07-02 03:30:00,
2013-07-01 22:35:00,60.9,54.3,30.07,East,98,0.0,0.0,79,0.00,,---,0.00,VWS V14.01,2013-07-02 03:35:00,
2013-07-01 22:40:00,60.5,54.3,30.07,East,98,0.0,0.0,80,0.00,,---,0.00,VWS V14.01,2013-07-02 03:40:00,
2013-07-01 22:45:00,60.1,54.3,30.07,East,98,0.0,0.0,81,0.00,,---,0.00,VWS V14.01,2013-07-02 03:45:00,
2013-07-01 22:50:00,59.9,54.1,30.07,East,98,0.0,0.0,81,0.00,,---,0.00,VWS V14.01,2013-07-02 03:50:00,
2013-07-01 22:55:00,60.0,54.2,30.07,East,98,0.0,0.0,81,0.00,,---,0.00,VWS V14.01,2013-07-02 03:55:00,
2013-07-01 23:00:00,60.0,53.5,30.07,East,98,0.0,0.0,79,0.00,,---,0.00,VWS V14.01,2013-07-02 04:00:00,
2013-07-01 23:01:00,60.1,53.6,30.07,East,98,0.0,0.0,79,0.00,,---,0.00,VWS V14.01,2013-07-02 04:01:00,
2013-07-01 23:02:00,60.1,53.6,30.07,East,98,0.0,0.0,79,0.00,,---,0.00,VWS V14.01,2013-07-02 04:02:00,
2013-07-01 23:07:00,59.9,53.7,30.07,East,98,0.0,0.0,80,0.00,,---,0.00,VWS V14.01,2013-07-02 04:07:00,
2013-07-01 23:12:00,59.6,54.1,30.07,East,98,0.0,0.0,82,0.00,,---,0.00,VWS V14.01,2013-07-02 04:12:00,
2013-07-01 23:17:00,59.1,53.6,30.07,East,98,0.0,0.0,82,0.00,,---,0.00,VWS V14.01,2013-07-02 04:17:00,
2013-07-01 23:22:00,58.6,53.5,30.07,East,98,0.0,0.0,83,0.00,,---,0.00,VWS V14.01,2013-07-02 04:22:00,
2013-07-01 23:27:00,58.2,53.1,30.07,East,98,0.0,0.0,83,0.00,,---,0.00,VWS V14.01,2013-07-02 04:27:00,
2013-07-01 23:32:00,57.9,53.1,30.07,WSW,243,0.0,1.0,84,0.00,,---,0.00,VWS V14.01,2013-07-02 04:32:00,
2013-07-01 23:37:00,57.8,53.7,30.07,SSW,194,0.0,0.0,86,0.00,,---,0.00,VWS V14.01,2013-07-02 04:37:00,
2013-07-01 23:42:00,57.6,53.5,30.07,SSW,194,0.0,0.0,86,0.00,,---,0.00,VWS V14.01,2013-07-02 04:42:00,
2013-07-01 23:48:00,57.3,53.2,30.07,SSW,194,0.0,0.0,86,0.00,,---,0.00,VWS V14.01,2013-07-02 04:48:00,
2013-07-01 23:53:00,57.0,53.2,30.07,SSW,194,0.0,0.0,87,0.00,,---,0.00,VWS V14.01,2013-07-02 04:53:00,
2013-07-01 23:58:00,56.7,52.9,30.07,SSW,194,0.0,0.0,87,0.00,,---,0.00,VWS V14.01,2013-07-02 04:58:00,